createdAt,value
2023-04-19T00:01:21.024Z,10.30
2023-04-19T00:03:47.804Z,10.30
2023-04-19T00:06:15.160Z,10.20
2023-04-19T00:08:42.384Z,10.20
2023-04-19T00:11:09.627Z,10.20
2023-04-19T00:13:36.523Z,10.30
2023-04-19T00:16:03.315Z,10.10
2023-04-19T00:18:29.978Z,10.00
2023-04-19T00:20:56.673Z,9.90
2023-04-19T00:23:23.306Z,10.10
2023-04-19T00:25:50.054Z,9.90
2023-04-19T00:28:16.722Z,9.90
2023-04-19T00:30:43.519Z,9.90
2023-04-19T00:33:12.947Z,9.80
2023-04-19T00:35:42.923Z,9.90
2023-04-19T00:38:09.594Z,9.90
2023-04-19T00:40:38.038Z,10.00
2023-04-19T00:43:04.720Z,10.00
2023-04-19T00:45:34.756Z,10.10
2023-04-19T00:48:01.888Z,10.00
2023-04-19T00:50:28.998Z,9.90
2023-04-19T00:52:56.475Z,9.80
2023-04-19T00:55:23.671Z,9.80
2023-04-19T00:57:52.247Z,9.90
2023-04-19T01:00:19.979Z,9.80
2023-04-19T01:02:47.776Z,9.80
2023-04-19T01:05:15.221Z,9.80
2023-04-19T01:07:43.299Z,9.90
2023-04-19T01:10:10.374Z,10.00
2023-04-19T01:12:37.187Z,10.00
2023-04-19T01:15:04.314Z,10.00
2023-04-19T01:17:33.028Z,10.10
2023-04-19T01:20:06.599Z,10.10
2023-04-19T01:22:33.450Z,10.20
2023-04-19T01:25:00.559Z,10.20
2023-04-19T01:27:27.207Z,10.20
2023-04-19T01:29:53.889Z,10.20
2023-04-19T01:32:20.544Z,10.10
2023-04-19T01:34:49.184Z,10.00
2023-04-19T01:37:15.914Z,9.90
2023-04-19T01:39:42.519Z,10.00
2023-04-19T01:42:09.207Z,10.00
2023-04-19T01:44:35.892Z,10.10
2023-04-19T01:47:02.579Z,10.30
2023-04-19T01:49:29.306Z,10.20
2023-04-19T01:51:56.068Z,10.30
2023-04-19T01:54:22.840Z,10.20
2023-04-19T01:56:49.596Z,10.10
2023-04-19T01:59:16.441Z,10.00
2023-04-19T02:01:44.601Z,10.00
2023-04-19T02:04:11.349Z,10.00
2023-04-19T02:06:38.165Z,10.00
2023-04-19T02:09:05.023Z,10.10
2023-04-19T02:11:31.743Z,10.10
2023-04-19T02:13:58.450Z,10.00
2023-04-19T02:16:25.349Z,10.10
2023-04-19T02:18:52.166Z,10.10
2023-04-19T02:21:18.929Z,10.10
2023-04-19T02:23:45.821Z,10.10
2023-04-19T02:26:13.148Z,10.00
2023-04-19T02:28:39.897Z,10.10
2023-04-19T02:31:07.211Z,10.00
2023-04-19T02:33:34.576Z,10.00
2023-04-19T02:36:01.291Z,10.10
2023-04-19T02:38:27.923Z,10.00
2023-04-19T02:40:54.920Z,10.00
2023-04-19T02:43:21.606Z,10.00
2023-04-19T02:45:48.401Z,10.00
2023-04-19T02:48:15.428Z,10.00
2023-04-19T02:50:42.089Z,10.00
2023-04-19T02:53:08.785Z,9.90
2023-04-19T02:55:35.448Z,9.90
2023-04-19T02:58:02.121Z,9.90
2023-04-19T03:00:29.054Z,9.90
2023-04-19T03:02:56.780Z,9.90
2023-04-19T03:05:24.001Z,9.90
2023-04-19T03:07:50.617Z,10.00
2023-04-19T03:10:17.589Z,10.00
2023-04-19T03:12:44.287Z,10.00
2023-04-19T03:15:11.425Z,9.90
2023-04-19T03:17:38.399Z,9.90
2023-04-19T03:20:09.762Z,10.00
2023-04-19T03:22:36.735Z,10.00
2023-04-19T03:25:07.135Z,10.00
2023-04-19T03:27:35.941Z,9.90
2023-04-19T03:30:02.701Z,9.80
2023-04-19T03:32:29.586Z,9.90
2023-04-19T03:34:56.314Z,9.90
2023-04-19T03:37:23.135Z,9.90
2023-04-19T03:39:49.764Z,9.80
2023-04-19T03:42:16.442Z,9.90
2023-04-19T03:44:43.169Z,9.90
2023-04-19T03:47:09.811Z,9.80
2023-04-19T03:49:36.480Z,9.80
2023-04-19T03:52:03.260Z,9.80
2023-04-19T03:54:30.032Z,9.80
2023-04-19T03:56:57.085Z,9.90
2023-04-19T03:59:23.799Z,9.80
2023-04-19T04:01:50.693Z,9.80
2023-04-19T04:04:17.721Z,9.70
2023-04-19T04:06:45.092Z,9.70
2023-04-19T04:09:11.731Z,9.70
2023-04-19T04:11:38.360Z,9.60
2023-04-19T04:14:08.115Z,9.60
2023-04-19T04:16:34.855Z,9.60
2023-04-19T04:19:01.657Z,9.70
2023-04-19T04:21:28.434Z,9.70
2023-04-19T04:23:55.103Z,9.70
2023-04-19T04:26:21.959Z,9.70
2023-04-19T04:28:48.719Z,9.70
2023-04-19T04:31:18.026Z,9.80
2023-04-19T04:33:45.889Z,9.80
2023-04-19T04:36:12.815Z,9.70
2023-04-19T04:38:39.531Z,9.60
2023-04-19T04:41:06.250Z,9.60
2023-04-19T04:43:33.498Z,9.60
2023-04-19T04:46:01.033Z,9.70
2023-04-19T04:48:27.831Z,9.80
2023-04-19T04:50:54.684Z,9.70
2023-04-19T04:53:21.484Z,9.60
2023-04-19T04:55:48.139Z,9.50
2023-04-19T04:58:14.801Z,9.60
2023-04-19T05:00:41.495Z,9.70
2023-04-19T05:03:08.295Z,9.70
2023-04-19T05:05:37.802Z,9.60
2023-04-19T05:08:04.953Z,9.80
2023-04-19T05:10:31.725Z,9.70
2023-04-19T05:12:58.446Z,9.70
2023-04-19T05:15:25.184Z,9.80
2023-04-19T05:17:51.842Z,9.70
2023-04-19T05:20:18.583Z,9.70
2023-04-19T05:22:45.727Z,9.70
2023-04-19T05:25:12.495Z,9.70
2023-04-19T05:27:39.791Z,9.60
2023-04-19T05:30:07.135Z,9.50
2023-04-19T05:32:33.959Z,9.60
2023-04-19T05:35:00.714Z,9.70
2023-04-19T05:37:27.458Z,9.70
2023-04-19T05:39:54.137Z,9.70
2023-04-19T05:42:20.874Z,9.70
2023-04-19T05:44:47.888Z,9.80
2023-04-19T05:47:14.550Z,9.80
2023-04-19T05:49:43.241Z,9.80
2023-04-19T05:52:10.175Z,9.90
2023-04-19T05:54:37.017Z,9.90
2023-04-19T05:57:04.122Z,9.80
2023-04-19T05:59:30.840Z,9.90
2023-04-19T06:01:57.756Z,9.90
2023-04-19T06:04:24.905Z,9.90
2023-04-19T06:06:51.878Z,9.90
2023-04-19T06:09:18.757Z,10.10
2023-04-19T06:11:50.700Z,10.10
2023-04-19T06:14:18.964Z,10.10
2023-04-19T06:16:46.202Z,10.10
2023-04-19T06:19:13.630Z,10.10
2023-04-19T06:21:40.597Z,10.10
2023-04-19T06:24:07.853Z,10.10
2023-04-19T06:26:34.601Z,10.20
2023-04-19T06:29:01.547Z,10.20
2023-04-19T06:31:28.448Z,10.20
2023-04-19T06:33:55.394Z,10.20
2023-04-19T06:36:22.273Z,10.20
2023-04-19T06:38:49.955Z,10.30
2023-04-19T06:41:16.683Z,10.30
2023-04-19T06:43:44.790Z,10.40
2023-04-19T06:46:13.920Z,10.50
2023-04-19T06:48:40.921Z,10.60
2023-04-19T06:51:07.936Z,10.40
2023-04-19T06:53:35.624Z,10.40
2023-04-19T06:56:04.200Z,10.50
2023-04-19T06:58:34.530Z,10.60
2023-04-19T07:01:03.989Z,10.40
2023-04-19T07:03:30.940Z,10.50
2023-04-19T07:05:57.933Z,10.50
2023-04-19T07:08:32.287Z,10.60
2023-04-19T07:11:05.875Z,10.70
2023-04-19T07:13:32.586Z,10.60
2023-04-19T07:15:59.848Z,10.60
2023-04-19T07:18:26.523Z,10.80
2023-04-19T07:20:53.234Z,10.70
2023-04-19T07:23:19.998Z,10.70
2023-04-19T07:25:46.705Z,10.80
2023-04-19T07:28:13.450Z,10.80
2023-04-19T07:30:40.288Z,10.80
2023-04-19T07:33:08.576Z,11.00
2023-04-19T07:35:35.883Z,10.80
2023-04-19T07:38:02.937Z,10.80
2023-04-19T07:40:29.815Z,10.70
2023-04-19T07:42:56.993Z,10.80
2023-04-19T07:45:23.851Z,10.80
2023-04-19T07:47:50.747Z,11.00
2023-04-19T07:50:17.913Z,11.00
2023-04-19T07:52:44.662Z,11.10
2023-04-19T07:55:11.527Z,11.10
2023-04-19T07:57:38.296Z,11.20
2023-04-19T08:00:05.492Z,11.30
2023-04-19T08:02:32.339Z,11.30
2023-04-19T08:05:02.381Z,11.40
2023-04-19T08:07:29.288Z,11.40
2023-04-19T08:09:56.283Z,11.50
2023-04-19T08:12:34.582Z,11.50
2023-04-19T08:15:19.646Z,11.60
2023-04-19T08:17:51.379Z,11.60
2023-04-19T08:20:18.361Z,11.80
2023-04-19T08:22:45.691Z,11.90
2023-04-19T08:25:12.380Z,11.90
2023-04-19T08:27:39.115Z,12.00
2023-04-19T08:30:07.948Z,11.90
2023-04-19T08:32:34.736Z,11.90
2023-04-19T08:35:01.528Z,12.00
2023-04-19T08:37:28.183Z,11.80
2023-04-19T08:39:55.020Z,11.90
2023-04-19T08:42:32.992Z,12.10
2023-04-19T08:47:44.791Z,12.20
2023-04-19T08:50:31.140Z,12.30
2023-04-19T08:53:16.164Z,12.40
2023-04-19T08:56:06.879Z,12.40
2023-04-19T09:01:06.838Z,12.50
2023-04-19T09:03:44.060Z,12.60
2023-04-19T09:06:18.487Z,12.80
2023-04-19T09:08:45.538Z,12.80
2023-04-19T09:11:12.288Z,12.90
2023-04-19T09:13:40.706Z,12.80
2023-04-19T09:16:22.664Z,12.80
2023-04-19T09:19:08.117Z,12.90
2023-04-19T09:21:39.929Z,12.90
2023-04-19T09:24:07.155Z,13.10
2023-04-19T09:26:34.442Z,13.20
2023-04-19T09:29:08.008Z,13.10
2023-04-19T09:34:16.149Z,13.30
2023-04-19T09:36:43.455Z,13.40
2023-04-19T09:39:11.281Z,13.30
2023-04-19T09:41:54.091Z,13.20
2023-04-19T09:46:53.863Z,13.50
2023-04-19T09:49:41.662Z,13.80
2023-04-19T09:52:15.041Z,13.80
2023-04-19T09:54:42.238Z,13.70
2023-04-19T09:57:08.942Z,13.90
2023-04-19T09:59:35.875Z,14.00
2023-04-19T10:02:05.031Z,14.00
2023-04-19T10:04:49.995Z,13.90
2023-04-19T10:07:30.182Z,14.00
2023-04-19T10:10:11.818Z,13.90
2023-04-19T10:13:11.613Z,13.90
2023-04-19T10:15:50.060Z,14.10
2023-04-19T10:18:18.519Z,14.10
2023-04-19T10:21:03.876Z,13.80
2023-04-19T10:23:32.736Z,14.00
2023-04-19T10:25:59.654Z,14.00
2023-04-19T10:28:29.874Z,14.10
2023-04-19T10:31:01.887Z,14.00
2023-04-19T10:33:37.157Z,13.90
2023-04-19T10:36:08.334Z,13.90
2023-04-19T10:38:55.520Z,13.90
2023-04-19T10:41:22.970Z,14.00
2023-04-19T10:43:56.123Z,14.10
2023-04-19T10:46:23.163Z,14.10
2023-04-19T10:49:04.401Z,14.20
2023-04-19T10:51:39.485Z,14.30
2023-04-19T10:54:27.509Z,14.30
2023-04-19T10:56:59.642Z,14.20
2023-04-19T10:59:27.404Z,14.30
2023-04-19T11:02:17.158Z,14.40
2023-04-19T11:04:52.587Z,14.40
2023-04-19T11:07:21.469Z,14.40
2023-04-19T11:09:50.063Z,14.50
2023-04-19T11:12:24.134Z,14.40
2023-04-19T11:14:57.872Z,14.30
2023-04-19T11:17:31.133Z,14.30
2023-04-19T11:20:03.513Z,14.40
2023-04-19T11:22:33.609Z,14.50
2023-04-19T11:25:06.202Z,14.40
2023-04-19T11:28:30.566Z,14.50
2023-04-19T11:34:14.752Z,14.70
2023-04-19T11:36:51.539Z,14.50
2023-04-19T11:39:19.163Z,14.40
2023-04-19T11:41:49.643Z,14.40
2023-04-19T11:44:20.090Z,14.50
2023-04-19T11:47:01.319Z,14.40
2023-04-19T11:49:32.847Z,14.40
2023-04-19T11:52:04.607Z,14.60
2023-04-19T11:54:33.400Z,14.70
2023-04-19T11:57:09.514Z,14.60
2023-04-19T11:59:37.064Z,14.70
2023-04-19T12:02:11.800Z,14.80
2023-04-19T12:04:39.497Z,14.80
2023-04-19T12:07:07.079Z,15.00
2023-04-19T12:09:35.928Z,15.10
2023-04-19T12:12:03.147Z,15.10
2023-04-19T12:14:30.765Z,15.10
2023-04-19T12:17:08.143Z,15.10
2023-04-19T12:19:46.408Z,15.00
2023-04-19T12:22:17.134Z,15.20
2023-04-19T12:24:43.905Z,15.20
2023-04-19T12:27:11.473Z,15.00
2023-04-19T12:29:39.329Z,15.10
2023-04-19T12:32:06.612Z,15.30
2023-04-19T12:34:33.567Z,15.40
2023-04-19T12:37:00.896Z,15.60
2023-04-19T12:39:28.708Z,15.30
2023-04-19T12:41:55.882Z,15.30
2023-04-19T12:44:23.235Z,15.60
2023-04-19T12:46:50.194Z,15.30
2023-04-19T12:49:20.359Z,15.10
2023-04-19T12:51:47.697Z,15.10
2023-04-19T12:54:15.515Z,15.00
2023-04-19T12:56:44.880Z,15.00
2023-04-19T12:59:11.728Z,15.00
2023-04-19T13:01:38.693Z,15.20
2023-04-19T13:04:06.168Z,15.20
2023-04-19T13:06:33.122Z,15.10
2023-04-19T13:09:01.225Z,15.10
2023-04-19T13:11:28.648Z,14.90
2023-04-19T13:13:55.439Z,15.00
2023-04-19T13:16:22.636Z,14.70
2023-04-19T13:18:50.928Z,14.60
2023-04-19T13:21:17.871Z,14.50
2023-04-19T13:23:45.147Z,14.70
2023-04-19T13:26:12.363Z,14.50
2023-04-19T13:28:40.420Z,14.20
2023-04-19T13:31:07.272Z,14.10
2023-04-19T13:33:34.470Z,14.00
2023-04-19T13:36:01.162Z,14.00
2023-04-19T13:38:27.962Z,14.00
2023-04-19T13:40:54.733Z,13.80
2023-04-19T13:43:21.743Z,13.50
2023-04-19T13:45:48.542Z,13.50
2023-04-19T13:48:15.371Z,13.50
2023-04-19T13:50:42.157Z,13.60
2023-04-19T13:53:09.044Z,13.50
2023-04-19T13:55:36.418Z,13.40
2023-04-19T13:58:03.176Z,13.40
2023-04-19T14:00:30.184Z,13.20
2023-04-19T14:02:56.994Z,13.00
2023-04-19T14:05:23.954Z,13.00
2023-04-19T14:07:50.701Z,13.00
2023-04-19T14:10:17.616Z,13.00
2023-04-19T14:12:45.126Z,13.00
2023-04-19T14:15:12.472Z,13.00
2023-04-19T14:17:39.516Z,12.90
2023-04-19T14:20:07.609Z,12.70
2023-04-19T14:22:35.500Z,12.70
2023-04-19T14:25:03.722Z,12.70
2023-04-19T14:27:30.647Z,12.60
2023-04-19T14:29:57.418Z,12.60
2023-04-19T14:32:26.688Z,12.50
2023-04-19T14:34:55.746Z,12.60
2023-04-19T14:37:24.396Z,12.60
2023-04-19T14:39:51.911Z,12.50
2023-04-19T14:42:22.306Z,12.40
2023-04-19T14:44:51.867Z,12.40
2023-04-19T14:47:18.887Z,12.40
2023-04-19T14:49:45.701Z,12.40
2023-04-19T14:52:12.609Z,12.60
2023-04-19T14:54:39.422Z,12.70
2023-04-19T14:57:06.178Z,12.50
2023-04-19T14:59:36.182Z,12.60
2023-04-19T15:02:02.994Z,12.50
2023-04-19T15:04:29.992Z,12.60
2023-04-19T15:06:56.824Z,12.80
2023-04-19T15:09:23.680Z,12.70
2023-04-19T15:11:50.357Z,12.50
2023-04-19T15:14:17.168Z,12.50
2023-04-19T15:16:43.916Z,12.60
2023-04-19T15:19:10.892Z,12.40
2023-04-19T15:21:37.814Z,12.50
2023-04-19T15:24:06.091Z,12.50
2023-04-19T15:26:33.178Z,12.50
2023-04-19T15:29:00.061Z,12.30
2023-04-19T15:31:27.024Z,12.50
2023-04-19T15:33:54.217Z,12.60
2023-04-19T15:36:20.904Z,12.60
2023-04-19T15:38:47.725Z,12.60
2023-04-19T15:41:14.459Z,12.50
2023-04-19T15:43:41.276Z,12.40
2023-04-19T15:46:12.605Z,12.50
2023-04-19T15:48:39.779Z,12.50
2023-04-19T15:51:10.804Z,12.50
2023-04-19T15:53:37.910Z,12.40
2023-04-19T15:56:05.780Z,12.40
2023-04-19T15:58:32.632Z,12.40
2023-04-19T16:00:59.371Z,12.30
2023-04-19T16:03:26.287Z,12.40
2023-04-19T16:05:53.217Z,12.30
2023-04-19T16:08:20.020Z,12.40
2023-04-19T16:10:47.614Z,12.20
2023-04-19T16:13:15.066Z,12.20
2023-04-19T16:15:43.431Z,12.20
2023-04-19T16:18:11.136Z,12.30
2023-04-19T16:20:39.389Z,12.30
2023-04-19T16:23:06.348Z,12.30
2023-04-19T16:25:34.170Z,12.30
2023-04-19T16:28:01.272Z,12.40
2023-04-19T16:30:28.534Z,12.30
2023-04-19T16:32:56.783Z,12.30
2023-04-19T16:35:25.291Z,12.20
2023-04-19T16:37:53.241Z,12.20
2023-04-19T16:40:22.192Z,12.20
2023-04-19T16:42:49.316Z,12.20
2023-04-19T16:45:17.831Z,12.20
2023-04-19T16:47:46.201Z,12.20
2023-04-19T16:50:14.116Z,12.20
2023-04-19T16:52:41.331Z,12.10
2023-04-19T16:55:08.604Z,12.10
2023-04-19T16:57:36.575Z,12.20
2023-04-19T17:00:05.780Z,12.10
2023-04-19T17:02:33.195Z,12.20
2023-04-19T17:05:00.367Z,12.20
2023-04-19T17:07:27.421Z,12.20
2023-04-19T17:09:55.451Z,12.20
2023-04-19T17:12:22.321Z,12.20
2023-04-19T17:14:49.086Z,12.20
2023-04-19T17:17:16.077Z,12.10
2023-04-19T17:19:42.835Z,12.20
2023-04-19T17:22:09.562Z,12.10
2023-04-19T17:24:36.304Z,12.10
2023-04-19T17:27:03.084Z,12.10
2023-04-19T17:29:30.289Z,12.10
2023-04-19T17:31:57.447Z,12.10
2023-04-19T17:34:24.455Z,12.10
2023-04-19T17:36:51.629Z,12.20
2023-04-19T17:39:18.979Z,12.10
2023-04-19T17:41:46.164Z,12.10
2023-04-19T17:44:13.016Z,12.10
2023-04-19T17:46:40.522Z,12.10
2023-04-19T17:49:08.764Z,12.20
2023-04-19T17:51:35.524Z,12.20
2023-04-19T17:54:02.260Z,12.10
2023-04-19T17:56:29.017Z,12.10
2023-04-19T17:58:55.849Z,11.90
2023-04-19T18:01:22.792Z,11.90
2023-04-19T18:03:49.745Z,11.90
2023-04-19T18:06:16.600Z,11.80
2023-04-19T18:08:43.978Z,11.70
2023-04-19T18:11:11.072Z,11.60
2023-04-19T18:13:37.844Z,11.50
2023-04-19T18:16:10.941Z,11.40
2023-04-19T18:18:37.744Z,11.40
2023-04-19T18:21:06.343Z,11.40
2023-04-19T18:23:34.132Z,11.40
2023-04-19T18:26:02.644Z,11.40
2023-04-19T18:28:29.979Z,11.30
2023-04-19T18:30:57.268Z,11.30
2023-04-19T18:33:24.221Z,11.30
2023-04-19T18:35:53.221Z,11.10
2023-04-19T18:38:23.065Z,11.20
2023-04-19T18:40:50.103Z,11.10
2023-04-19T18:43:16.984Z,11.10
2023-04-19T18:45:43.820Z,11.10
2023-04-19T18:48:10.680Z,10.90
2023-04-19T18:50:38.238Z,10.90
2023-04-19T18:53:05.079Z,11.00
2023-04-19T18:55:32.034Z,11.00
2023-04-19T18:58:01.312Z,10.90
2023-04-19T19:00:28.539Z,10.80
2023-04-19T19:02:57.434Z,10.80
2023-04-19T19:05:24.516Z,10.80
2023-04-19T19:07:51.463Z,10.80
2023-04-19T19:10:21.838Z,10.70
2023-04-19T19:12:49.794Z,10.80
2023-04-19T19:15:16.876Z,10.70
2023-04-19T19:17:48.506Z,10.80
2023-04-19T19:20:16.590Z,10.80
2023-04-19T19:22:44.320Z,10.60
2023-04-19T19:25:12.202Z,10.70
2023-04-19T19:27:40.115Z,10.60
2023-04-19T19:30:08.038Z,10.70
2023-04-19T19:32:34.928Z,10.70
2023-04-19T19:35:06.436Z,10.70
2023-04-19T19:37:36.565Z,10.60
2023-04-19T19:40:06.639Z,10.60
2023-04-19T19:42:36.071Z,10.60
2023-04-19T19:45:03.767Z,10.50
2023-04-19T19:47:35.053Z,10.50
2023-04-19T19:52:34.293Z,10.40
2023-04-19T19:55:01.293Z,10.30
2023-04-19T20:00:18.038Z,10.20
2023-04-19T20:02:54.924Z,10.20
2023-04-19T20:05:23.931Z,10.10
2023-04-19T20:10:20.767Z,10.10
2023-04-19T20:12:47.662Z,10.00
2023-04-19T20:15:14.873Z,10.10
2023-04-19T20:17:41.718Z,9.90
2023-04-19T20:20:10.956Z,9.80
2023-04-19T20:22:38.375Z,9.80
2023-04-19T20:25:05.804Z,9.70
2023-04-19T20:27:33.309Z,9.70
2023-04-19T20:30:00.892Z,9.70
2023-04-19T20:32:27.785Z,9.60
2023-04-19T20:34:54.566Z,9.60
2023-04-19T20:37:23.369Z,9.70
2023-04-19T20:39:50.348Z,9.70
2023-04-19T20:42:17.385Z,9.60
2023-04-19T20:44:44.581Z,9.60
2023-04-19T20:47:13.261Z,9.50
2023-04-19T20:49:40.009Z,9.30
2023-04-19T20:52:06.841Z,9.40
2023-04-19T20:54:35.120Z,9.40
2023-04-19T20:57:03.248Z,9.40
2023-04-19T20:59:30.449Z,9.40
2023-04-19T21:01:58.272Z,9.40
2023-04-19T21:04:25.428Z,9.20
2023-04-19T21:06:52.253Z,9.20
2023-04-19T21:09:19.146Z,9.20
2023-04-19T21:11:46.001Z,9.20
2023-04-19T21:14:13.142Z,9.20
2023-04-19T21:16:41.169Z,9.10
2023-04-19T21:19:07.979Z,9.00
2023-04-19T21:21:34.784Z,9.00
2023-04-19T21:24:01.555Z,9.00
2023-04-19T21:26:28.335Z,8.90
2023-04-19T21:28:55.114Z,8.90
2023-04-19T21:31:21.873Z,9.00
2023-04-19T21:33:48.683Z,8.90
2023-04-19T21:36:15.537Z,9.00
2023-04-19T21:38:42.425Z,8.80
2023-04-19T21:41:09.214Z,8.60
2023-04-19T21:43:35.963Z,8.40
2023-04-19T21:46:05.056Z,8.30
2023-04-19T21:48:32.403Z,8.30
2023-04-19T21:51:00.715Z,8.40
2023-04-19T21:53:27.551Z,8.40
2023-04-19T21:55:54.397Z,8.50
2023-04-19T21:58:21.292Z,8.40
2023-04-19T22:00:48.631Z,8.20
2023-04-19T22:03:15.787Z,8.20
2023-04-19T22:05:43.357Z,8.40
2023-04-19T22:08:10.664Z,8.30
2023-04-19T22:10:37.712Z,8.40
2023-04-19T22:13:04.841Z,8.20
2023-04-19T22:15:31.805Z,8.30
2023-04-19T22:17:58.671Z,8.10
2023-04-19T22:20:26.977Z,8.00
2023-04-19T22:22:53.833Z,7.70
2023-04-19T22:25:20.718Z,7.80
2023-04-19T22:27:48.823Z,7.70
2023-04-19T22:30:16.268Z,7.70
2023-04-19T22:32:42.962Z,7.80
2023-04-19T22:35:09.813Z,7.80
2023-04-19T22:37:36.580Z,7.60
2023-04-19T22:40:05.873Z,7.40
2023-04-19T22:42:32.652Z,7.40
2023-04-19T22:44:59.477Z,7.40
2023-04-19T22:47:26.447Z,7.30
2023-04-19T22:49:54.123Z,7.20
2023-04-19T22:52:20.935Z,7.20
2023-04-19T22:54:47.690Z,7.20
2023-04-19T22:57:14.518Z,7.30
2023-04-19T22:59:41.227Z,7.30
2023-04-19T23:02:08.021Z,7.40
2023-04-19T23:04:35.470Z,7.30
2023-04-19T23:07:03.105Z,7.10
2023-04-19T23:09:30.054Z,7.20
2023-04-19T23:11:58.650Z,7.30
2023-04-19T23:14:25.465Z,7.20
2023-04-19T23:16:54.695Z,7.10
2023-04-19T23:19:25.581Z,7.10
2023-04-19T23:21:52.318Z,7.10
2023-04-19T23:24:19.628Z,7.10
2023-04-19T23:26:46.469Z,7.10
2023-04-19T23:29:13.618Z,7.10
2023-04-19T23:31:40.583Z,7.10
2023-04-19T23:34:07.315Z,7.10
2023-04-19T23:36:34.160Z,7.00
2023-04-19T23:39:01.302Z,7.10
2023-04-19T23:41:28.104Z,7.00
2023-04-19T23:43:54.798Z,6.90
2023-04-19T23:46:21.667Z,6.90
2023-04-19T23:48:48.715Z,6.70
2023-04-19T23:51:15.829Z,6.40
2023-04-19T23:53:43.428Z,6.30
2023-04-19T23:56:10.302Z,6.30
2023-04-19T23:58:36.995Z,6.30
